Bei Facebook empfehlenBei Twitter postenGoogle plusPinterest

Das Wetter im Erzgebirge am 17.07.2016

Wetter und Klima am 17.07.2016 Holzhau im Erzgebirge (630m ü.NN)
Letzte gemessene Temperatur und Uhrzeit der Messung23:45:00 Uhr13.30 °C
Temperatur (Maximum / Höchstwert) und Uhrzeit der Messung16:15:00 Uhr20.60 °C
Temperatur (Minimum / Tiefstwert) und Uhrzeit der Messung23:30:0013.20 °C
Errechneter Absolutwert der Temperaturschwankungen zwischen Tmin und Tmax des Tages7.40 K
Errechnete Tagesmitteltemperatur15.83021 °C
Gesamt - Niederschlag des Tages (in flüssiger Form)2.59 Liter / m²
Luftdruck (Maximum / Höchstwert) und Zeitpunkt der Messung00:00:00 Uhr1020.40 hPa
Luftdruck (Minimum / Tiefstwert) und Zeitpunkt der Messung19:45:00 Uhr1017.80 hPa
Errechneter Absolutwert der Luftdruckschwankungen des Tages2.60 hPa
Höchste gemessene Windgeschwindigkeit und Uhrzeit der Messung23:45:00 Uhr0.00 km/h
Errechnete Windhäufigkeit in Relation zu den Messwerten des Tages0.00000 %
Niedrigste Windkühle (Windchill) und Zeitpunkt der Messung23:30:00 Uhr13.20 °C
Taupunkt (Maximum / Höchstwert) und Uhrzeit der Messung16:15:00 Uhr18.70 °C
Taupunkt (Minimum / Tiefstwert) und Uhrzeit der Messung00:00:0010.30 °C
Anzahl der automatisch eingelesenen Messwerte 96

Detaillierte Wetter- und Klima- Messwerte für den 17.07.2016 in Holzhau im Erzgebirge (630m ü.NN)
ZeitTemperaturLuftdruckRel. LuftfeuchteWindWindrichtungWindchillTaupunktNiederschlag l/m²
23:45:0013.30 °C1018.50 hPa93.00 %12.20 °C2.59
23:30:0013.20 °C1018.60 hPa93.00 %12.10 °C2.59
23:15:0013.40 °C1018.50 hPa93.00 %12.30 °C2.59
23:00:0013.90 °C1018.60 hPa92.00 %12.60 °C2.59
22:45:0014.40 °C1018.50 hPa92.00 %13.10 °C2.59
22:30:0014.90 °C1018.40 hPa92.00 %13.60 °C2.59
22:15:0015.10 °C1018.60 hPa92.00 %13.80 °C2.59
22:00:0015.20 °C1018.50 hPa92.00 %13.90 °C2.59
21:45:0015.50 °C1018.50 hPa91.00 %14.00 °C2.59
21:30:0016.10 °C1018.20 hPa91.00 %14.60 °C2.59
21:15:0016.80 °C1018.20 hPa91.00 %15.30 °C2.59
21:00:0017.00 °C1018.30 hPa91.00 %15.50 °C2.59
20:45:0017.10 °C1018.00 hPa90.00 %15.40 °C2.59
20:30:0017.20 °C1018.00 hPa90.00 %15.50 °C2.59
20:15:0017.30 °C1017.90 hPa90.00 %15.60 °C2.59
20:00:0017.40 °C1017.90 hPa90.00 %15.70 °C2.59
19:45:0017.40 °C1017.80 hPa89.00 %15.60 °C2.59
19:30:0017.80 °C1017.90 hPa89.00 %16.00 °C2.59
19:15:0018.10 °C1018.10 hPa88.00 %16.10 °C2.59
19:00:0018.20 °C1018.10 hPa88.00 %16.20 °C2.59
18:45:0018.40 °C1018.10 hPa88.00 %16.40 °C2.59
18:30:0018.40 °C1018.20 hPa88.00 %16.40 °C2.59
18:15:0018.40 °C1018.20 hPa87.00 %16.20 °C2.59
18:00:0019.10 °C1018.30 hPa87.00 %16.90 °C2.59
17:45:0019.00 °C1018.00 hPa87.00 %16.80 °C2.59
17:30:0019.20 °C1018.00 hPa86.00 %16.80 °C2.59
17:15:0019.60 °C1017.80 hPa86.00 %17.20 °C2.59
17:00:0019.90 °C1018.00 hPa87.00 %17.70 °C2.59
16:45:0019.80 °C1018.00 hPa88.00 %17.80 °C2.59
16:30:0019.80 °C1018.20 hPa87.00 %17.60 °C2.59
16:15:0020.60 °C1018.40 hPa89.00 %18.70 °C2.59
16:00:0019.90 °C1018.70 hPa90.00 %18.20 °C2.59
15:45:0019.60 °C1018.70 hPa92.00 %18.30 °C2.59
15:30:0019.20 °C1018.80 hPa93.00 %18.00 °C2.59
15:15:0018.40 °C1018.90 hPa93.00 %17.20 °C2.59
15:00:0017.80 °C1019.00 hPa94.00 %16.80 °C2.59
14:45:0017.60 °C1018.90 hPa94.00 %16.60 °C2.59
14:30:0017.20 °C1019.00 hPa94.00 %16.20 °C2.59
14:15:0017.00 °C1019.10 hPa93.00 %15.90 °C2.08
14:00:0017.40 °C1019.20 hPa93.00 %16.30 °C2.08
13:45:0017.70 °C1019.10 hPa93.00 %16.60 °C2.08
13:30:0017.20 °C1019.40 hPa94.00 %16.20 °C1.56
13:15:0017.20 °C1019.30 hPa94.00 %16.20 °C1.56
13:00:0016.80 °C1019.10 hPa94.00 %15.80 °C1.56
12:45:0016.60 °C1019.20 hPa94.00 %15.60 °C1.56
12:30:0016.50 °C1019.20 hPa94.00 %15.50 °C1.56
12:15:0016.30 °C1018.90 hPa94.00 %15.30 °C1.56
12:00:0016.10 °C1018.80 hPa94.00 %15.10 °C1.56
11:45:0016.10 °C1018.90 hPa94.00 %15.10 °C1.56
11:30:0015.60 °C1019.00 hPa94.00 %14.60 °C1.56
11:15:0015.80 °C1019.10 hPa94.00 %14.80 °C1.56
11:00:0015.80 °C1018.80 hPa94.00 %14.80 °C1.56
10:45:0015.90 °C1018.90 hPa94.00 %14.90 °C1.56
10:30:0015.90 °C1019.10 hPa94.00 %14.90 °C1.56
10:15:0015.80 °C1018.90 hPa95.00 %15.00 °C1.56
10:00:0015.50 °C1018.90 hPa95.00 %14.70 °C1.56
09:45:0015.30 °C1018.90 hPa95.00 %14.50 °C1.56
09:30:0015.30 °C1018.80 hPa95.00 %14.50 °C1.56
09:15:0014.90 °C1019.00 hPa94.00 %13.90 °C1.56
09:00:0014.90 °C1018.90 hPa94.00 %13.90 °C1.56
08:45:0014.80 °C1019.20 hPa94.00 %13.80 °C1.56
08:30:0014.40 °C1019.30 hPa94.00 %13.40 °C1.56
08:15:0014.30 °C1019.30 hPa94.00 %13.30 °C1.56
08:00:0014.20 °C1019.40 hPa94.00 %13.20 °C1.56
07:45:0014.10 °C1019.40 hPa94.00 %13.10 °C1.56
07:30:0014.00 °C1019.40 hPa94.00 %13.10 °C1.04
07:15:0013.90 °C1019.40 hPa94.00 %13.00 °C1.04
07:00:0013.90 °C1019.20 hPa94.00 %13.00 °C1.04
06:45:0013.90 °C1019.30 hPa94.00 %13.00 °C1.04
06:30:0014.00 °C1019.30 hPa93.00 %12.90 °C0.52
06:15:0014.00 °C1019.20 hPa93.00 %12.90 °C0.52
06:00:0014.00 °C1019.40 hPa93.00 %12.90 °C0.52
05:45:0014.00 °C1019.20 hPa92.00 %12.70 °C0.52
05:30:0013.90 °C1019.30 hPa92.00 %12.60 °C0.52
05:15:0013.90 °C1019.20 hPa92.00 %12.60 °C0.52
05:00:0013.90 °C1019.20 hPa91.00 %12.50 °C0.52
04:45:0013.90 °C1019.20 hPa91.00 %12.50 °C 
04:30:0013.90 °C1019.20 hPa91.00 %12.50 °C 
04:15:0013.90 °C1019.20 hPa90.00 %12.30 °C 
04:00:0014.10 °C1019.30 hPa89.00 %12.30 °C 
03:45:0014.20 °C1019.30 hPa89.00 %12.40 °C 
03:30:0014.50 °C1019.40 hPa88.00 %12.50 °C 
03:15:0014.70 °C1019.40 hPa88.00 %12.70 °C 
03:00:0014.60 °C1019.50 hPa87.00 %12.50 °C 
02:45:0014.60 °C1019.50 hPa87.00 %12.50 °C 
02:30:0014.40 °C1019.60 hPa88.00 %12.40 °C 
02:15:0014.20 °C1019.60 hPa87.00 %12.10 °C 
02:00:0013.90 °C1019.70 hPa87.00 %11.80 °C 
01:45:0013.60 °C1019.80 hPa87.00 %11.50 °C 
01:30:0013.40 °C1019.80 hPa86.00 %11.10 °C 
01:15:0013.30 °C1020.00 hPa85.00 %10.80 °C 
01:00:0013.30 °C1020.00 hPa85.00 %10.80 °C 
00:45:0013.30 °C1020.20 hPa85.00 %10.80 °C 
00:30:0013.30 °C1020.10 hPa84.00 %10.70 °C 
00:15:0013.30 °C1020.30 hPa83.00 %10.50 °C 
00:00:0013.30 °C1020.40 hPa82.00 %10.30 °C 

Permanenter Link zu dieser Seite: Wetter im Erzgebirge am 17.07.2016
Performance-Info: Die Erstellung der Seite / Statistik(en) / Tabelle(n) erforderte 5 Datenbankserver-Abfrage(n) und dauerte 68 Millisekunden. (Dieser Messwert ist von der Gesamt-Auslastung des Servers abhängig.)
Erzgebirge - Wetter | Erzgebirge - Wetter (Mobilgeräte) | Komplette Klimadatenbank